Time;durP1;ratioP1;P1;durP2;ratioP2;P2;SDS_P1;SDS_P2;PMS_P1;PMS_P2;Temp;Humidity;BMP_temperature;BMP_pressure;BME280_temperature;BME280_humidity;BME280_pressure;Samples;Min_cycle;Max_cycle;Signal;HPM_P1;HPM_P2
2021/05/03 00:00:14;;;;;;;;;14.00;11.50;;;;;10.62;72.92;99561.53;3588285;40;14018;-57
2021/05/03 00:02:41;;;;;;;;;12.00;12.00;;;;;10.55;73.30;99561.91;3583100;40;10278;-56
2021/05/03 00:05:19;;;;;;;;;12.00;12.00;;;;;10.59;73.39;99562.59;3581289;40;14148;-57
2021/05/03 00:07:46;;;;;;;;;13.00;10.00;;;;;10.62;73.10;99562.38;3584416;40;14036;-56
2021/05/03 00:10:13;;;;;;;;;12.75;12.00;;;;;10.50;73.92;99571.22;3582803;40;14026;-57
2021/05/03 00:12:41;;;;;;;;;13.33;12.00;;;;;10.49;73.24;99574.88;3581489;40;10321;-57
2021/05/03 00:15:11;;;;;;;;;16.75;12.25;;;;;10.45;72.95;99573.31;3582090;40;13995;-55
2021/05/03 00:17:39;;;;;;;;;12.00;9.75;;;;;10.37;74.46;99576.47;3583215;40;14022;-57
2021/05/03 00:20:08;;;;;;;;;16.00;11.50;;;;;10.45;73.20;99578.69;3583107;40;11199;-57
2021/05/03 00:22:35;;;;;;;;;11.50;11.25;;;;;10.42;73.74;99579.75;3580528;40;10851;-56
2021/05/03 00:25:03;;;;;;;;;17.00;14.75;;;;;10.30;73.64;99578.69;3582218;40;14160;-56
2021/05/03 00:27:30;;;;;;;;;14.67;13.33;;;;;10.42;73.60;99593.16;3582904;40;14233;-57
2021/05/03 00:29:57;;;;;;;;;17.67;15.67;;;;;10.40;74.08;99600.47;3583098;40;10525;-58
2021/05/03 00:32:24;;;;;;;;;17.00;12.25;;;;;10.40;74.38;99607.63;3583173;40;10865;-56
2021/05/03 00:34:52;;;;;;;;;16.33;12.33;;;;;10.38;73.84;99609.56;3583027;40;10390;-57
2021/05/03 00:37:19;;;;;;;;;13.33;12.00;;;;;10.40;73.85;99602.25;3582186;40;10578;-58
2021/05/03 00:39:46;;;;;;;;;15.75;15.50;;;;;10.33;74.12;99608.03;3579552;40;10695;-57
2021/05/03 00:42:13;;;;;;;;;16.00;15.33;;;;;10.17;74.85;99609.03;3583212;40;10404;-57
2021/05/03 00:44:39;;;;;;;;;17.33;12.67;;;;;10.09;74.72;99613.03;3589289;40;10674;-58
2021/05/03 00:47:06;;;;;;;;;15.33;12.33;;;;;10.23;75.34;99606.81;3581928;40;10481;-57
2021/05/03 00:49:34;;;;;;;;;13.00;12.33;;;;;9.98;75.72;99611.94;3580494;40;10237;-56
2021/05/03 00:52:01;;;;;;;;;20.00;16.00;;;;;9.99;75.13;99602.97;3580773;40;10485;-57
2021/05/03 00:54:28;;;;;;;;;19.00;12.33;;;;;10.14;74.60;99617.25;3581543;40;10139;-55
2021/05/03 00:56:55;;;;;;;;;16.33;12.67;;;;;10.22;73.90;99625.72;3580775;40;10168;-57
2021/05/03 00:59:22;;;;;;;;;16.00;14.33;;;;;10.12;74.17;99625.41;3579558;40;10153;-58
2021/05/03 01:01:49;;;;;;;;;18.33;15.67;;;;;10.00;74.02;99631.50;3580412;40;10319;-57
2021/05/03 01:04:16;;;;;;;;;15.00;15.00;;;;;10.23;72.96;99640.84;3581407;40;10225;-57
2021/05/03 01:06:43;;;;;;;;;19.00;11.67;;;;;10.25;72.48;99642.50;3580912;40;10390;-57
2021/05/03 01:09:09;;;;;;;;;15.67;13.67;;;;;10.10;73.36;99638.91;3580985;40;10381;-57
2021/05/03 01:11:37;;;;;;;;;13.67;12.33;;;;;10.17;72.73;99639.41;3580943;40;10490;-56
2021/05/03 01:14:05;;;;;;;;;15.33;15.00;;;;;10.21;71.77;99646.31;3580621;40;10459;-57
2021/05/03 01:16:32;;;;;;;;;17.67;15.00;;;;;10.24;72.32;99640.78;3580440;40;10610;-58
2021/05/03 01:18:59;;;;;;;;;17.67;14.33;;;;;10.26;72.34;99641.53;3582928;40;10471;-57
2021/05/03 01:21:29;;;;;;;;;17.00;13.00;;;;;10.06;73.08;99653.47;3583427;40;10225;-57
2021/05/03 01:23:56;;;;;;;;;15.00;15.00;;;;;10.28;71.98;99655.75;3582740;40;10372;-57
2021/05/03 01:26:23;;;;;;;;;15.67;13.67;;;;;10.04;72.42;99660.75;3583150;40;10091;-57
2021/05/03 01:28:50;;;;;;;;;21.00;15.33;;;;;10.18;72.27;99657.22;3581621;40;10300;-58
2021/05/03 01:31:17;;;;;;;;;16.67;12.67;;;;;10.15;71.64;99660.09;3581885;40;10428;-56
2021/05/03 01:33:44;;;;;;;;;15.33;12.33;;;;;10.15;72.86;99676.19;3582010;40;10150;-57
2021/05/03 01:36:11;;;;;;;;;17.67;15.00;;;;;10.31;72.39;99674.34;3582410;40;10158;-57
2021/05/03 01:38:38;;;;;;;;;13.67;12.00;;;;;10.22;72.60;99668.66;3589292;40;10343;-58
2021/05/03 01:41:05;;;;;;;;;22.33;18.00;;;;;9.99;74.01;99668.19;3582942;40;10411;-57
2021/05/03 01:43:33;;;;;;;;;18.67;17.33;;;;;10.21;73.09;99667.75;3581435;40;10406;-56
2021/05/03 01:46:01;;;;;;;;;18.00;16.67;;;;;10.25;71.92;99663.09;3582847;40;10017;-56
2021/05/03 01:48:31;;;;;;;;;18.00;17.33;;;;;10.28;72.10;99679.91;3582432;40;10515;-57
2021/05/03 01:50:59;;;;;;;;;18.00;17.00;;;;;10.20;71.88;99678.59;3581508;40;9971;-59
2021/05/03 01:53:27;;;;;;;;;18.67;17.00;;;;;10.02;72.95;99680.56;3581949;40;10227;-57
2021/05/03 01:55:58;;;;;;;;;18.00;16.67;;;;;10.11;71.72;99672.00;3580609;40;10188;-57
2021/05/03 01:58:26;;;;;;;;;16.00;13.00;;;;;10.17;71.61;99676.97;3581855;40;10149;-58
2021/05/03 02:00:57;;;;;;;;;22.00;18.00;;;;;10.12;71.05;99681.75;3580126;40;9926;-56
2021/05/03 02:03:27;;;;;;;;;17.00;15.33;;;;;10.17;70.14;99676.97;3580981;40;10288;-53
2021/05/03 02:05:55;;;;;;;;;21.00;18.67;;;;;10.16;68.41;99682.41;3581975;40;10077;-56
2021/05/03 02:08:22;;;;;;;;;21.00;15.00;;;;;10.28;68.54;99687.94;3581103;40;10673;-57
2021/05/03 02:10:54;;;;;;;;;20.00;17.00;;;;;10.27;66.18;99683.56;3585622;39;10599;-57
2021/05/03 02:13:22;;;;;;;;;20.33;17.00;;;;;10.31;66.19;99689.59;3590968;40;9977;-56
2021/05/03 02:15:51;;;;;;;;;22.00;18.00;;;;;10.14;67.10;99685.22;3582390;40;9865;-55
2021/05/03 02:18:18;;;;;;;;;25.33;17.33;;;;;10.07;67.83;99681.16;3582829;40;9922;-54
2021/05/03 02:20:46;;;;;;;;;22.33;16.00;;;;;10.10;68.20;99692.56;3584121;40;10271;-57
2021/05/03 02:23:14;;;;;;;;;17.00;15.00;;;;;10.29;67.32;99692.38;3583747;40;10042;-56
2021/05/03 02:25:42;;;;;;;;;20.00;16.33;;;;;10.32;67.68;99694.88;3583913;40;10500;-55
2021/05/03 02:28:11;;;;;;;;;20.00;17.00;;;;;10.27;68.39;99698.75;3582277;40;10141;-57
2021/05/03 02:30:40;;;;;;;;;21.00;17.00;;;;;10.03;68.67;99695.69;3579303;40;10235;-56
2021/05/03 02:33:08;;;;;;;;;25.33;18.33;;;;;10.10;67.14;99691.69;3582686;40;10133;-58
2021/05/03 02:35:35;;;;;;;;;56.33;43.67;;;;;10.17;66.83;99692.22;3579226;40;10643;-57
2021/05/03 02:38:07;;;;;;;;;28.67;22.67;;;;;10.08;66.90;99693.59;3581395;40;10124;-54
2021/05/03 02:40:36;;;;;;;;;32.33;23.67;;;;;10.11;66.12;99699.66;3582714;40;10061;-55
2021/05/03 02:43:04;;;;;;;;;23.33;21.33;;;;;10.23;65.24;99692.69;3584262;40;9827;-56
2021/05/03 02:45:32;;;;;;;;;28.00;21.33;;;;;10.16;64.98;99704.75;3583511;40;9806;-57
2021/05/03 02:48:00;;;;;;;;;13.00;9.33;;;;;10.13;64.58;99691.50;3580930;40;9871;-56
2021/05/03 02:50:28;;;;;;;;;20.00;18.33;;;;;10.08;64.53;99697.19;3584002;40;9817;-57
2021/05/03 02:52:56;;;;;;;;;21.00;18.67;;;;;10.12;64.54;99713.94;3585280;40;9913;-57
2021/05/03 02:55:23;;;;;;;;;25.67;20.00;;;;;10.12;64.38;99713.94;3582934;40;9911;-56
2021/05/03 02:57:53;;;;;;;;;27.00;20.67;;;;;10.03;64.78;99715.34;3602669;39;9897;-57
2021/05/03 03:00:35;;;;;;;;;25.00;22.00;;;;;9.96;64.89;99713.13;3585329;40;10560;-57
2021/05/03 03:03:04;;;;;;;;;19.67;19.67;;;;;9.98;65.23;99713.88;3586539;40;9807;-56
2021/05/03 03:05:32;;;;;;;;;22.67;17.67;;;;;9.91;65.64;99712.53;3586689;40;9755;-57
2021/05/03 03:08:04;;;;;;;;;27.33;21.67;;;;;10.01;65.84;99713.72;3586851;40;9816;-56
2021/05/03 03:10:32;;;;;;;;;20.00;18.67;;;;;10.04;65.78;99716.22;3586682;40;9903;-59
2021/05/03 03:13:01;;;;;;;;;24.67;21.33;;;;;10.00;65.99;99722.69;3584040;40;9890;-57
2021/05/03 03:15:31;;;;;;;;;19.33;17.33;;;;;10.04;65.88;99721.59;3590748;40;9862;-57
2021/05/03 03:17:58;;;;;;;;;21.33;20.67;;;;;10.14;65.41;99730.81;3586804;40;9836;-57
2021/05/03 03:20:25;;;;;;;;;25.67;22.00;;;;;9.97;66.15;99737.16;3594542;40;10543;-58
2021/05/03 03:22:52;;;;;;;;;21.00;20.00;;;;;9.97;66.01;99739.84;3585967;40;9958;-57
2021/05/03 03:25:19;;;;;;;;;24.00;21.00;;;;;10.03;65.73;99744.88;3586948;40;9797;-55
2021/05/03 03:27:46;;;;;;;;;25.00;20.33;;;;;10.00;66.11;99757.56;3587061;40;10350;-57
2021/05/03 03:30:16;;;;;;;;;26.33;22.67;;;;;10.03;65.68;99760.06;3586578;40;9868;-55
2021/05/03 03:32:44;;;;;;;;;24.00;23.00;;;;;9.95;66.85;99756.97;3585606;40;9991;-55
2021/05/03 03:35:17;;;;;;;;;30.00;22.67;;;;;9.91;67.16;99760.81;3576355;40;9834;-57
2021/05/03 03:37:47;;;;;;;;;26.00;21.33;;;;;9.86;67.78;99764.59;3577154;40;10351;-56
2021/05/03 03:40:17;;;;;;;;;26.00;21.00;;;;;9.89;68.30;99769.78;3577918;40;9879;-57
2021/05/03 03:42:44;;;;;;;;;26.00;22.67;;;;;9.97;69.02;99771.16;3578181;40;10199;-56
2021/05/03 03:45:13;;;;;;;;;24.33;20.00;;;;;9.83;68.69;99774.66;3578301;40;10005;-57
2021/05/03 03:47:40;;;;;;;;;26.00;25.00;;;;;9.88;68.95;99792.19;3587685;40;9863;-57
2021/05/03 03:50:09;;;;;;;;;29.67;26.00;;;;;9.75;69.98;99801.03;3584266;40;9783;-56
2021/05/03 03:52:36;;;;;;;;;26.33;24.00;;;;;9.82;69.12;99805.97;3584778;40;10002;-57
2021/05/03 03:55:05;;;;;;;;;26.00;20.33;;;;;9.85;68.56;99805.78;3585951;40;10084;-57
2021/05/03 03:57:32;;;;;;;;;22.00;20.67;;;;;9.81;68.49;99804.22;3578399;40;9811;-56
2021/05/03 03:59:59;;;;;;;;;22.00;20.33;;;;;9.75;69.16;99804.56;3579896;40;9976;-57
2021/05/03 04:02:28;;;;;;;;;25.00;20.33;;;;;9.71;69.35;99803.00;3588440;40;9890;-57
2021/05/03 04:07:42;;;;;;;;;25.00;20.00;;;;;9.89;68.27;99807.31;3585484;40;9861;-58
2021/05/03 04:10:26;;;;;;;;;25.33;23.33;;;;;9.66;68.33;99814.00;3587339;40;9860;-58
2021/05/03 04:23:47;;;;;;;;;23.67;19.00;;;;;9.64;66.80;99836.50;3584227;40;9985;-56
2021/05/03 04:26:16;;;;;;;;;23.67;18.67;;;;;9.48;66.69;99832.91;3581136;40;9925;-56
2021/05/03 04:28:45;;;;;;;;;26.67;20.00;;;;;9.61;65.32;99833.94;3588336;40;9783;-56
2021/05/03 04:31:12;;;;;;;;;22.67;20.00;;;;;9.55;65.45;99836.97;3586915;40;10275;-52
2021/05/03 04:33:39;;;;;;;;;20.00;20.00;;;;;9.48;64.81;99839.16;3582034;40;9855;-56
2021/05/03 04:36:07;;;;;;;;;25.67;20.33;;;;;9.48;65.44;99852.56;3580628;40;10019;-55
2021/05/03 04:38:35;;;;;;;;;19.33;16.00;;;;;9.50;65.13;99847.94;3577480;40;9913;-56
2021/05/03 04:41:02;;;;;;;;;23.33;20.00;;;;;9.41;65.86;99848.47;3578068;40;10330;-57
2021/05/03 04:43:29;;;;;;;;;19.00;19.00;;;;;9.45;65.36;99853.59;3581273;40;9847;-56
2021/05/03 04:45:56;;;;;;;;;21.67;19.00;;;;;9.46;66.14;99851.75;3587764;40;9862;-55
2021/05/03 04:48:23;;;;;;;;;22.00;17.00;;;;;9.51;66.37;99854.19;3588155;40;10277;-56
2021/05/03 04:50:50;;;;;;;;;22.67;21.00;;;;;9.49;65.49;99864.13;3585940;40;10026;-52
2021/05/03 04:53:17;;;;;;;;;25.00;20.33;;;;;9.62;64.96;99859.84;3579382;40;9995;-53
2021/05/03 04:55:44;;;;;;;;;21.00;20.33;;;;;9.61;65.20;99860.75;3579183;40;9902;-54
2021/05/03 04:58:11;;;;;;;;;20.33;18.33;;;;;9.72;64.38;99860.19;3588084;40;10112;-57
2021/05/03 05:00:38;;;;;;;;;20.67;18.33;;;;;9.72;65.12;99860.19;3579350;40;9854;-55
2021/05/03 05:03:05;;;;;;;;;21.00;20.33;;;;;9.79;64.33;99859.75;3578246;40;9926;-58
2021/05/03 05:05:32;;;;;;;;;26.67;19.33;;;;;10.01;63.58;99871.97;3577464;40;9908;-57
2021/05/03 05:07:59;;;;;;;;;23.33;17.00;;;;;9.87;64.21;99878.97;3585735;40;10364;-57
2021/05/03 05:10:26;;;;;;;;;22.33;20.00;;;;;9.91;63.95;99874.31;3589253;40;9875;-56
2021/05/03 05:12:53;;;;;;;;;17.67;9.33;;;;;10.05;63.22;99870.84;3582589;40;9829;-57
2021/05/03 05:15:20;;;;;;;;;18.00;16.00;;;;;10.02;62.35;99879.91;3577373;40;10333;-57
2021/05/03 05:17:48;;;;;;;;;25.33;17.00;;;;;10.11;61.83;99881.25;3577226;40;10185;-55
2021/05/03 05:20:17;;;;;;;;;17.00;16.00;;;;;10.89;60.51;99882.06;3581675;40;10326;-57
2021/05/03 05:22:44;;;;;;;;;18.00;14.25;;;;;11.11;58.68;99880.78;3582707;40;10667;-56
2021/05/03 05:25:11;;;;;;;;;18.75;17.25;;;;;10.46;60.43;99887.28;3579236;40;14037;-57
2021/05/03 05:27:39;;;;;;;;;17.33;15.00;;;;;10.11;61.04;99898.19;3587594;40;10352;-58
2021/05/03 05:30:07;;;;;;;;;19.00;12.00;;;;;10.09;61.41;99896.56;3582619;40;10198;-58
2021/05/03 05:32:34;;;;;;;;;30.67;18.00;;;;;10.02;61.49;99893.34;3580039;40;9871;-58
2021/05/03 05:35:02;;;;;;;;;25.00;19.33;;;;;10.26;63.06;99909.00;3584883;40;10431;-57
2021/05/03 05:37:29;;;;;;;;;17.33;15.00;;;;;10.41;61.11;99904.63;3577271;40;10633;-56
2021/05/03 05:39:56;;;;;;;;;20.67;15.00;;;;;9.97;61.57;99911.50;3580593;40;10054;-56
2021/05/03 05:42:23;;;;;;;;;18.67;16.00;;;;;9.89;62.12;99911.06;3591606;40;10019;-55
2021/05/03 05:44:50;;;;;;;;;25.67;17.33;;;;;9.96;62.08;99919.66;3577250;40;9864;-56
2021/05/03 05:47:17;;;;;;;;;17.33;13.00;;;;;10.08;60.26;99921.63;3577384;40;9879;-55
2021/05/03 05:49:44;;;;;;;;;21.00;17.00;;;;;9.89;61.79;99930.69;3579554;40;9980;-56
2021/05/03 05:52:11;;;;;;;;;16.00;16.00;;;;;9.88;62.08;99937.03;3579930;40;10301;-57
2021/05/03 05:54:38;;;;;;;;;20.00;15.67;;;;;9.96;62.49;99925.88;3584116;40;9827;-55
2021/05/03 05:57:05;;;;;;;;;21.67;18.67;;;;;10.14;61.21;99934.72;3577666;40;9968;-56
2021/05/03 05:59:33;;;;;;;;;17.00;17.00;;;;;10.00;61.53;99942.66;3577247;40;9797;-52
2021/05/03 06:02:00;;;;;;;;;24.00;20.00;;;;;10.03;61.92;99942.47;3584868;40;9966;-54
2021/05/03 06:04:27;;;;;;;;;22.67;16.33;;;;;10.32;60.82;99948.94;3602713;39;9964;-57
2021/05/03 06:06:54;;;;;;;;;21.33;17.00;;;;;10.35;61.32;99948.78;3578766;40;10137;-58
2021/05/03 06:09:23;;;;;;;;;17.00;12.33;;;;;10.39;61.46;99950.34;3578614;40;10366;-56
2021/05/03 06:11:50;;;;;;;;;16.67;13.67;;;;;10.39;61.09;99946.78;3584802;40;10061;-54
2021/05/03 06:14:17;;;;;;;;;19.00;16.33;;;;;10.56;60.88;99952.06;3587149;40;10556;-59
2021/05/03 06:16:43;;;;;;;;;18.00;16.50;;;;;10.52;60.11;99946.00;3581209;40;11309;-56
2021/05/03 06:19:10;;;;;;;;;14.67;14.33;;;;;10.67;60.51;99955.00;3577465;40;10337;-58
2021/05/03 06:21:37;;;;;;;;;21.25;15.50;;;;;10.73;59.31;99951.09;3577297;40;10880;-58
2021/05/03 06:24:06;;;;;;;;;17.00;16.25;;;;;10.67;58.50;99946.94;3577389;40;14084;-57
2021/05/03 06:26:33;;;;;;;;;17.00;15.33;;;;;10.55;58.22;99950.31;3579787;40;10377;-57
2021/05/03 06:28:59;;;;;;;;;13.00;12.00;;;;;10.92;58.35;99948.19;3587002;40;10676;-58
2021/05/03 06:31:26;;;;;;;;;19.00;16.50;;;;;10.95;57.49;99942.63;3586002;40;13988;-58
2021/05/03 06:33:53;;;;;;;;;21.67;17.67;;;;;10.98;57.50;99953.22;3577916;40;10461;-57
2021/05/03 06:36:20;;;;;;;;;21.00;19.67;;;;;11.53;55.74;99957.97;3576989;40;10368;-56
2021/05/03 06:38:47;;;;;;;;;17.00;15.50;;;;;11.43;56.62;99954.09;3586938;40;10739;-55
2021/05/03 06:41:14;;;;;;;;;21.00;17.75;;;;;11.41;56.06;99961.41;3587136;40;14205;-57
2021/05/03 06:43:40;;;;;;;;;17.25;16.75;;;;;12.03;55.82;99962.06;3578658;40;14164;-56
2021/05/03 06:46:07;;;;;;;;;17.75;16.25;;;;;12.87;52.60;99968.31;3576774;40;14224;-57
2021/05/03 06:48:35;;;;;;;;;18.00;14.50;;;;;11.72;53.42;99975.66;3578697;40;14107;-56
2021/05/03 06:51:02;;;;;;;;;15.00;15.00;;;;;11.77;53.83;99973.53;3577129;40;14070;-57
2021/05/03 06:53:30;;;;;;;;;21.75;17.00;;;;;11.46;54.81;99986.19;3582207;40;14009;-56
2021/05/03 06:55:57;;;;;;;;;17.75;16.75;;;;;11.42;54.37;99984.63;3594177;40;14062;-57
2021/05/03 06:58:23;;;;;;;;;19.50;15.75;;;;;11.92;53.63;99986.06;3586807;40;14251;-56
2021/05/03 07:00:50;;;;;;;;;19.50;18.00;;;;;11.77;54.45;99995.03;3586763;40;14037;-58
2021/05/03 07:03:17;;;;;;;;;15.75;14.75;;;;;11.14;54.40;99997.03;3580836;40;14218;-54
2021/05/03 07:05:44;;;;;;;;;24.25;18.00;;;;;11.74;53.82;100003.31;3581426;40;14209;-57
2021/05/03 07:08:12;;;;;;;;;14.50;11.75;;;;;11.41;53.75;99999.03;3587056;40;14025;-56
2021/05/03 07:10:44;;;;;;;;;14.50;12.50;;;;;11.95;53.43;99998.47;3587048;40;13992;-58
2021/05/03 07:13:11;;;;;;;;;15.25;14.00;;;;;11.63;52.87;100006.66;3586282;40;14034;-57
2021/05/03 07:15:38;;;;;;;;;19.00;14.50;;;;;11.85;53.12;100003.53;3586566;40;14042;-57
2021/05/03 07:18:05;;;;;;;;;18.50;16.00;;;;;12.16;52.85;100007.88;3578114;40;14063;-56
2021/05/03 07:20:32;;;;;;;;;19.00;16.50;;;;;12.02;53.83;100006.06;3576168;40;14252;-57
2021/05/03 07:22:59;;;;;;;;;19.25;15.25;;;;;12.03;52.29;100007.81;3581304;40;14011;-55
2021/05/03 07:25:26;;;;;;;;;11.50;9.00;;;;;12.52;51.95;100010.06;3593736;40;14067;-57
2021/05/03 07:27:53;;;;;;;;;21.75;16.75;;;;;12.38;50.82;100012.78;3585061;40;14436;-54
2021/05/03 07:30:20;;;;;;;;;19.25;15.25;;;;;12.37;51.54;100020.94;3586790;40;14076;-53
2021/05/03 07:32:47;;;;;;;;;16.50;15.75;;;;;13.41;50.33;100024.91;3586641;40;14156;-57
2021/05/03 07:35:14;;;;;;;;;19.00;14.00;;;;;12.69;49.38;100029.66;3586128;40;14071;-56
2021/05/03 07:37:42;;;;;;;;;22.00;15.50;;;;;13.08;50.31;100022.59;3586828;40;14074;-58
2021/05/03 07:40:09;;;;;;;;;15.00;12.50;;;;;12.87;48.91;100030.28;3586882;40;14270;-56
2021/05/03 07:42:36;;;;;;;;;15.50;13.50;;;;;13.10;49.83;100035.03;3586357;40;14050;-57
2021/05/03 07:45:14;;;;;;;;;16.00;14.00;;;;;12.99;48.62;100028.63;3586738;40;14017;-58
2021/05/03 07:47:45;;;;;;;;;16.00;13.25;;;;;13.23;47.83;100032.38;3586633;40;14059;-56
2021/05/03 07:50:14;;;;;;;;;15.75;13.50;;;;;13.28;48.40;100037.50;3579945;40;14071;-57
2021/05/03 07:52:41;;;;;;;;;24.25;11.75;;;;;12.72;46.19;100029.47;3576096;40;14235;-57
2021/05/03 07:55:12;;;;;;;;;12.75;9.25;;;;;13.39;47.05;100037.63;3576662;40;14094;-55
2021/05/03 07:57:39;;;;;;;;;28.75;13.00;;;;;13.09;46.35;100030.59;3576605;40;14045;-55
2021/05/03 08:00:07;;;;;;;;;26.25;13.00;;;;;13.66;45.29;100028.63;3576610;40;14051;-51
2021/05/03 08:02:34;;;;;;;;;18.25;11.25;;;;;14.11;44.64;100031.78;3576213;40;14287;-57
2021/05/03 08:05:01;;;;;;;;;18.25;12.75;;;;;13.54;45.40;100033.03;3576067;40;14141;-53
2021/05/03 08:07:28;;;;;;;;;10.75;9.50;;;;;13.41;43.18;100045.63;3575920;40;14072;-56
2021/05/03 08:09:55;;;;;;;;;22.25;13.25;;;;;13.28;42.69;100041.06;3575913;40;14050;-51
2021/05/03 08:12:22;;;;;;;;;28.25;14.00;;;;;13.36;43.38;100036.00;3576285;40;14073;-58
2021/05/03 08:14:50;;;;;;;;;30.00;16.50;;;;;13.61;43.14;100042.41;3576200;40;14089;-55
2021/05/03 08:17:18;;;;;;;;;52.00;18.00;;;;;13.65;43.36;100043.94;3583441;40;14619;-54
2021/05/03 08:19:46;;;;;;;;;15.00;3.75;;;;;13.35;42.64;100042.38;3583449;40;14604;-54
2021/05/03 08:22:13;;;;;;;;;22.00;13.25;;;;;13.46;42.52;100043.50;3584387;40;14515;-53
2021/05/03 08:24:42;;;;;;;;;57.75;25.75;;;;;14.49;41.08;100040.72;3586632;40;14028;-51
2021/05/03 08:27:09;;;;;;;;;46.75;16.50;;;;;14.52;41.87;100031.53;3586558;40;14060;-49
2021/05/03 08:29:37;;;;;;;;;12.50;8.75;;;;;14.05;41.13;100046.56;3577682;40;14286;-54
2021/05/03 08:32:04;;;;;;;;;11.75;7.25;;;;;14.58;41.61;100049.16;3582735;40;14068;-53
2021/05/03 08:34:32;;;;;;;;;19.50;12.00;;;;;14.31;41.60;100051.97;3594809;40;14193;-52
2021/05/03 08:36:59;;;;;;;;;10.75;8.75;;;;;13.48;43.74;100065.81;3587870;40;14214;-51
2021/05/03 08:39:27;;;;;;;;;30.25;25.25;;;;;14.51;42.91;100051.41;3584033;40;13973;-52
2021/05/03 08:41:57;;;;;;;;;10.00;8.00;;;;;14.13;42.41;100054.13;3577748;40;14085;-51
2021/05/03 08:44:27;;;;;;;;;10.00;8.00;;;;;13.75;42.39;100061.25;3578055;40;14030;-53
2021/05/03 08:46:55;;;;;;;;;8.75;8.00;;;;;14.46;42.31;100067.09;3578246;40;14122;-54
2021/05/03 08:49:35;;;;;;;;;34.50;13.50;;;;;13.94;41.54;100068.94;3581210;40;14225;-49
2021/05/03 08:52:10;;;;;;;;;10.25;9.00;;;;;13.69;41.33;100069.78;3587648;40;14286;-49
2021/05/03 08:54:41;;;;;;;;;19.00;11.75;;;;;14.04;42.71;100071.88;3587642;40;14517;-49
2021/05/03 08:57:14;;;;;;;;;15.50;9.00;;;;;13.56;41.76;100082.34;3595412;40;14047;-52
2021/05/03 08:59:42;;;;;;;;;12.75;7.75;;;;;13.44;41.52;100072.41;3586804;40;14035;-47
2021/05/03 09:02:13;;;;;;;;;12.00;8.75;;;;;13.52;41.01;100064.66;3587001;40;14032;-52
2021/05/03 09:04:43;;;;;;;;;38.00;15.50;;;;;13.49;40.94;100064.84;3587570;40;14211;-54
2021/05/03 09:07:16;;;;;;;;;8.75;8.00;;;;;13.60;41.65;100064.97;3587782;40;14147;-54
2021/05/03 09:09:54;;;;;;;;;11.00;5.75;;;;;13.44;40.33;100062.47;3587482;40;14124;-49
2021/05/03 09:12:25;;;;;;;;;7.75;6.50;;;;;13.28;40.15;100068.03;3587744;40;14419;-55
2021/05/03 09:14:58;;;;;;;;;5.75;5.00;;;;;13.32;41.58;100074.94;3587908;40;14026;-54
2021/05/03 09:17:41;;;;;;;;;8.25;8.00;;;;;13.57;41.72;100076.84;3587829;40;14024;-51
2021/05/03 09:20:14;;;;;;;;;10.25;5.50;;;;;13.60;41.29;100057.75;3587872;40;14064;-51
2021/05/03 09:25:37;;;;;;;;;7.50;5.75;;;;;13.70;39.60;100057.13;3587405;40;14733;-53
2021/05/03 09:28:19;;;;;;;;;10.75;8.00;;;;;14.41;38.81;100058.47;3586997;40;14010;-56
2021/05/03 09:30:50;;;;;;;;;29.75;15.75;;;;;14.17;38.33;100056.53;3587167;40;13775;-55
2021/05/03 09:33:31;;;;;;;;;20.75;11.75;;;;;14.39;37.99;100049.59;3587586;40;14541;-54
2021/05/03 09:36:09;;;;;;;;;28.00;12.25;;;;;14.53;38.88;100052.19;3587039;40;14049;-57
2021/05/03 09:38:43;;;;;;;;;21.75;11.75;;;;;14.73;38.43;100061.56;3587668;40;14064;-52
2021/05/03 09:41:20;;;;;;;;;15.50;7.75;;;;;14.53;38.54;100051.31;3587511;40;14066;-57
2021/05/03 09:44:06;;;;;;;;;11.75;7.75;;;;;14.66;37.88;100058.44;3587413;40;14047;-55
2021/05/03 09:46:46;;;;;;;;;5.75;5.75;;;;;14.71;39.01;100061.66;3587701;40;14212;-55
2021/05/03 09:49:21;;;;;;;;;31.00;13.50;;;;;14.75;37.82;100061.47;3584913;40;13984;-55
2021/05/03 09:51:51;;;;;;;;;17.50;7.00;;;;;14.86;36.50;100054.28;3577526;40;14289;-53
2021/05/03 09:54:24;;;;;;;;;34.50;11.00;;;;;14.52;37.50;100069.34;3584614;40;14038;-56
2021/05/03 09:57:03;;;;;;;;;46.50;16.00;;;;;14.62;37.99;100062.34;3577509;40;14058;-56
2021/05/03 09:59:43;;;;;;;;;25.50;13.00;;;;;15.33;36.32;100057.13;3577055;40;14649;-57
2021/05/03 10:04:48;;;;;;;;;20.50;9.00;;;;;14.76;37.46;100046.97;3576901;40;14157;-57
2021/05/03 10:07:18;;;;;;;;;19.25;11.00;;;;;14.66;38.28;100053.03;3581835;40;14025;-56
2021/05/03 10:09:55;;;;;;;;;27.50;13.00;;;;;15.23;38.09;100043.44;3587318;40;14212;-56
2021/05/03 10:12:22;;;;;;;;;6.00;4.50;;;;;15.20;37.08;100053.63;3584247;40;14542;-56
2021/05/03 10:14:49;;;;;;;;;12.00;6.00;;;;;15.30;36.52;100069.06;3579695;40;14194;-56
2021/05/03 10:17:17;;;;;;;;;21.00;11.75;;;;;15.12;36.57;100055.06;3587669;40;14001;-55
2021/05/03 10:19:48;;;;;;;;;7.00;6.00;;;;;14.84;37.82;100055.38;3577483;40;14187;-57
2021/05/03 10:22:22;;;;;;;;;9.00;5.00;;;;;15.15;37.20;100054.81;3577581;40;13996;-56
2021/05/03 10:24:57;;;;;;;;;10.25;4.50;;;;;15.43;37.57;100051.88;3577006;40;13988;-56
2021/05/03 10:27:25;;;;;;;;;10.75;6.75;;;;;15.82;36.58;100064.22;3584844;40;14048;-56
2021/05/03 10:30:26;;;;;;;;;51.25;23.75;;;;;15.15;35.71;100065.63;3586958;40;14019;-56
2021/05/03 10:33:09;;;;;;;;;11.75;6.00;;;;;15.08;36.72;100052.69;3575396;40;14057;-54
2021/05/03 10:35:49;;;;;;;;;17.25;8.00;;;;;14.41;37.40;100055.75;3586880;40;14235;-51
2021/05/03 10:38:30;;;;;;;;;16.25;9.00;;;;;15.22;36.53;100054.34;3587262;40;14011;-53
2021/05/03 10:40:59;;;;;;;;;25.75;13.00;;;;;14.70;34.74;100049.13;3585183;40;14018;-52
2021/05/03 10:43:43;;;;;;;;;16.75;10.75;;;;;15.42;35.37;100056.41;3587324;40;14255;-54
2021/05/03 10:49:01;;;;;;;;;18.25;5.00;;;;;15.15;36.59;100053.97;3586292;40;14035;-53
2021/05/03 10:51:35;;;;;;;;;31.00;17.50;;;;;15.49;36.00;100052.28;3576810;40;14044;-56
2021/05/03 10:56:52;;;;;;;;;45.75;16.00;;;;;14.95;34.12;100043.75;3579436;40;13986;-51
2021/05/03 10:59:19;;;;;;;;;24.25;12.00;;;;;14.98;34.63;100049.81;3579414;40;14048;-54
2021/05/03 11:01:55;;;;;;;;;9.75;7.50;;;;;14.92;34.25;100042.16;3586514;40;14058;-55
2021/05/03 11:04:30;;;;;;;;;17.75;10.25;;;;;15.31;35.78;100046.41;3602839;39;14023;-56
2021/05/03 11:06:57;;;;;;;;;17.00;13.75;;;;;15.25;34.86;100036.06;3581639;40;14149;-54
2021/05/03 11:09:30;;;;;;;;;28.00;11.75;;;;;15.40;35.58;100034.03;3576347;40;14288;-56
2021/05/03 11:12:23;;;;;;;;;7.25;6.00;;;;;15.15;34.88;100026.91;3576823;40;14086;-55
2021/05/03 11:15:15;;;;;;;;;8.50;7.00;;;;;14.67;35.70;100035.00;3583670;40;13989;-57
2021/05/03 11:18:25;;;;;;;;;21.75;11.25;;;;;14.71;35.93;100040.03;3581153;40;14195;-55
2021/05/03 11:21:14;;;;;;;;;9.75;6.00;;;;;14.80;35.28;100043.06;3576926;40;14258;-47
2021/05/03 11:23:42;;;;;;;;;5.50;5.00;;;;;15.53;34.03;100031.25;3593524;40;14019;-50
2021/05/03 11:26:32;;;;;;;;;7.75;7.00;;;;;15.33;35.17;100038.19;3594432;40;14198;-49
2021/05/03 11:29:17;;;;;;;;;7.25;5.75;;;;;14.67;35.42;100033.16;3586563;40;14496;-50
2021/05/03 11:31:45;;;;;;;;;8.00;8.00;;;;;14.92;35.83;100031.31;3582548;40;13996;-49
2021/05/03 11:34:28;;;;;;;;;10.25;7.00;;;;;16.09;35.78;100033.25;3577619;40;14029;-56
2021/05/03 11:37:01;;;;;;;;;7.75;5.75;;;;;15.52;34.48;100035.81;3580870;40;14573;-55
2021/05/03 11:45:07;;;;;;;;;11.25;7.00;;;;;15.75;34.17;100035.91;3581604;40;13964;-56
2021/05/03 11:47:42;;;;;;;;;4.25;4.25;;;;;15.89;33.24;100035.69;3583803;40;14621;-56
2021/05/03 11:50:20;;;;;;;;;5.00;5.00;;;;;16.15;33.65;100032.78;3585088;40;14070;-54
2021/05/03 11:52:47;;;;;;;;;7.00;6.00;;;;;15.63;33.10;100026.00;3584696;40;13985;-50
2021/05/03 11:55:25;;;;;;;;;11.00;5.00;;;;;16.22;32.74;100028.63;3576313;40;13996;-51
2021/05/03 11:57:54;;;;;;;;;7.25;6.00;;;;;15.76;33.03;100022.25;3576704;40;14029;-52
2021/05/03 12:00:27;;;;;;;;;8.75;5.50;;;;;15.66;32.84;100034.72;3585326;40;14002;-48